Time;durP1;ratioP1;P1;durP2;ratioP2;P2;SDS_P1;SDS_P2;PMS_P1;PMS_P2;Temp;Humidity;BMP_temperature;BMP_pressure;BME280_temperature;BME280_humidity;BME280_pressure;Samples;Min_cycle;Max_cycle;Signal;HPM_P1;HPM_P2
2023/05/30 00:01:25;;;;;;;11.27;2.07;;;;;;;10.34;74.26;102462.06;5073640;28;20119;-89
2023/05/30 00:03:56;;;;;;;12.90;2.50;;;;;;;10.30;74.69;102461.53;5073608;28;20036;-89
2023/05/30 00:06:23;;;;;;;11.13;1.90;;;;;;;10.29;75.17;102462.56;5073809;28;20055;-89
2023/05/30 00:08:54;;;;;;;11.57;2.03;;;;;;;10.25;75.29;102461.22;5073940;28;20033;-89
2023/05/30 00:11:20;;;;;;;11.18;1.92;;;;;;;10.21;75.89;102470.72;5075013;28;20435;-89
2023/05/30 00:13:48;;;;;;;16.70;2.00;;;;;;;10.12;76.58;102469.88;5073162;28;20082;-89
2023/05/30 00:16:24;;;;;;;13.47;2.20;;;;;;;10.11;76.70;102481.78;5073269;28;20146;-89
2023/05/30 00:18:52;;;;;;;12.25;1.88;;;;;;;10.06;77.13;102476.00;5072864;28;20052;-89
2023/05/30 00:21:23;;;;;;;15.07;2.53;;;;;;;10.00;77.65;102482.13;5074057;28;20024;-89
2023/05/30 00:23:51;;;;;;;11.48;2.05;;;;;;;9.97;78.00;102469.75;5074495;28;20032;-88
2023/05/30 00:26:25;;;;;;;15.27;2.20;;;;;;;9.93;78.40;102471.09;5072757;28;20499;-88
2023/05/30 00:28:51;;;;;;;12.47;1.87;;;;;;;9.93;78.86;102467.53;5072818;28;20028;-89
2023/05/30 00:31:29;;;;;;;12.50;2.17;;;;;;;9.87;79.38;102476.38;5072530;28;20024;-88
2023/05/30 00:33:57;;;;;;;15.45;2.95;;;;;;;9.85;79.33;102479.25;5057258;28;20040;-89
2023/05/30 00:36:35;;;;;;;19.70;2.50;;;;;;;9.84;80.32;102480.25;5072870;28;20376;-88
2023/05/30 00:39:10;;;;;;;11.85;2.10;;;;;;;9.79;81.00;102474.53;5057472;28;20074;-88
2023/05/30 00:41:45;;;;;;;10.40;1.92;;;;;;;9.76;80.83;102478.41;5057146;28;20041;-89
2023/05/30 00:44:23;;;;;;;8.45;2.00;;;;;;;9.74;81.14;102487.72;5074310;28;20031;-89
2023/05/30 00:46:53;;;;;;;13.27;2.63;;;;;;;9.69;81.71;102492.81;5072571;28;20039;-89
2023/05/30 00:49:18;;;;;;;15.37;2.73;;;;;;;9.67;82.01;102495.69;5072337;28;20046;-88
2023/05/30 00:51:53;;;;;;;13.13;2.60;;;;;;;9.63;82.38;102497.88;5071955;28;20028;-89
2023/05/30 00:54:21;;;;;;;15.65;2.00;;;;;;;9.61;82.66;102493.63;5073147;28;20388;-88
2023/05/30 00:56:47;;;;;;;9.75;2.17;;;;;;;9.56;83.25;102494.16;5073461;28;20024;-88
2023/05/30 00:59:25;;;;;;;14.47;1.83;;;;;;;9.55;83.55;102499.75;5072403;28;20025;-89
2023/05/30 01:02:04;;;;;;;;;;;;;;;;;;;;;
2023/05/30 01:04:32;;;;;;;11.35;2.28;;;;;;;9.48;83.96;102496.88;5074426;28;20368;-89
2023/05/30 01:07:00;;;;;;;10.02;2.08;;;;;;;9.46;84.65;102493.47;5072628;28;20039;-88
2023/05/30 01:09:42;;;;;;;17.53;2.67;;;;;;;9.43;84.77;102494.66;5055814;28;20503;-89
2023/05/30 01:12:13;;;;;;;14.05;1.98;;;;;;;9.42;85.62;102501.09;5072256;28;20025;-89
2023/05/30 01:14:50;;;;;;;14.05;2.05;;;;;;;9.40;85.21;102504.97;5073726;28;20047;-89
2023/05/30 01:17:54;;;;;;;11.13;1.85;;;;;;;9.36;85.26;102501.75;5072291;28;20043;-88
2023/05/30 01:20:24;;;;;;;13.75;2.03;;;;;;;9.28;85.74;102494.44;5073378;28;20040;-88
2023/05/30 01:23:27;;;;;;;12.60;2.63;;;;;;;9.28;85.22;102501.75;5073230;28;20036;-89
2023/05/30 01:26:30;;;;;;;13.93;1.95;;;;;;;9.21;86.45;102493.44;5072313;28;20032;-88
2023/05/30 01:29:02;;;;;;;14.98;2.58;;;;;;;9.19;86.90;102498.16;5072148;28;20111;-88
2023/05/30 01:31:35;;;;;;;19.95;2.50;;;;;;;9.11;87.12;102490.88;5056916;28;20379;-88
2023/05/30 01:34:01;;;;;;;13.57;1.95;;;;;;;9.09;88.04;102502.88;5071774;28;20062;-88
2023/05/30 01:36:52;;;;;;;19.40;2.50;;;;;;;9.08;88.15;102501.16;5071879;28;20492;-88
2023/05/30 01:39:26;;;;;;;11.55;2.10;;;;;;;9.05;88.44;102501.50;5072668;28;20059;-88
2023/05/30 01:42:34;;;;;;;12.20;2.08;;;;;;;9.04;88.23;102503.38;5056765;28;20044;-89
2023/05/30 01:45:37;;;;;;;;;;;;;;;;;;;;;
2023/05/30 01:48:37;;;;;;;15.70;2.80;;;;;;;8.98;87.30;102505.91;5073862;28;20437;-88
2023/05/30 01:51:12;;;;;;;12.17;2.30;;;;;;;8.93;88.92;102511.78;5011183;28;20037;-88
2023/05/30 01:53:50;;;;;;;12.48;2.30;;;;;;;8.91;89.46;102509.25;4995074;28;20041;-88
2023/05/30 01:56:18;;;;;;;14.38;3.13;;;;;;;8.88;90.00;102512.28;5051596;28;20036;-89
2023/05/30 01:58:56;;;;;;;13.57;2.83;;;;;;;8.87;89.57;102510.59;5071341;28;20086;-88
2023/05/30 02:01:27;;;;;;;15.35;2.88;;;;;;;8.84;90.05;102516.31;5071715;28;20543;-88
2023/05/30 02:03:53;;;;;;;13.50;3.03;;;;;;;8.87;90.16;102510.59;5055571;28;20055;-88
2023/05/30 02:06:22;;;;;;;19.85;2.33;;;;;;;8.85;90.06;102517.19;5076832;28;20035;-89
2023/05/30 02:08:50;;;;;;;15.73;2.50;;;;;;;8.82;90.79;102512.94;5075517;28;20058;-88
2023/05/30 02:11:16;;;;;;;15.23;2.97;;;;;;;8.81;91.13;102524.75;5075514;28;20033;-88
2023/05/30 02:13:44;;;;;;;11.83;2.40;;;;;;;8.78;91.04;102523.25;5058879;28;20380;-88
2023/05/30 02:16:17;;;;;;;13.07;3.05;;;;;;;8.82;90.95;102525.63;5075217;28;20025;-88
2023/05/30 02:18:48;;;;;;;17.48;2.28;;;;;;;8.77;90.60;102526.97;5074841;28;20049;-88
2023/05/30 02:21:22;;;;;;;17.98;3.03;;;;;;;8.75;91.02;102529.00;5076070;28;20408;-89
2023/05/30 02:23:52;;;;;;;15.73;2.43;;;;;;;8.77;91.13;102528.84;5058496;28;20453;-88
2023/05/30 02:26:18;;;;;;;14.68;2.55;;;;;;;8.75;91.56;102515.47;5075030;28;20044;-89
2023/05/30 02:29:00;;;;;;;14.23;2.63;;;;;;;8.75;91.69;102520.00;5074840;28;20033;-88
2023/05/30 02:31:28;;;;;;;19.73;3.05;;;;;;;8.73;91.79;102524.75;5058736;28;20048;-88
2023/05/30 02:33:53;;;;;;;10.75;2.75;;;;;;;8.69;92.00;102524.22;5074575;28;20079;-88
2023/05/30 02:36:23;;;;;;;13.13;2.13;;;;;;;8.70;92.03;102525.06;5074691;28;20064;-89
2023/05/30 02:38:49;;;;;;;25.10;2.63;;;;;;;8.65;91.89;102527.41;5076374;28;20079;-88
2023/05/30 02:41:14;;;;;;;17.03;2.10;;;;;;;8.63;92.40;102524.03;5074980;28;20427;-88
2023/05/30 02:43:43;;;;;;;20.03;2.33;;;;;;;8.59;92.59;102518.06;5075344;28;20366;-88
2023/05/30 02:46:09;;;;;;;12.90;2.60;;;;;;;8.60;92.59;102523.31;5058005;28;20043;-88
2023/05/30 02:48:36;;;;;;;12.97;2.70;;;;;;;8.60;93.10;102523.31;5076043;28;20028;-89
2023/05/30 02:51:02;;;;;;;14.40;3.05;;;;;;;8.59;92.98;102515.38;5074568;28;20441;-88
2023/05/30 02:53:35;;;;;;;13.88;2.28;;;;;;;8.57;93.30;102523.63;5074827;28;20051;-88
2023/05/30 02:56:08;;;;;;;9.73;2.33;;;;;;;8.54;92.98;102509.59;5074528;28;20043;-87
2023/05/30 02:58:36;;;;;;;16.95;2.63;;;;;;;8.52;93.37;102512.47;5057651;28;20032;-88
2023/05/30 03:01:02;;;;;;;15.95;2.45;;;;;;;8.50;93.79;102519.03;5074367;28;20032;-88
2023/05/30 03:03:37;;;;;;;13.90;2.63;;;;;;;8.48;93.75;102518.38;5058017;28;20387;-89
2023/05/30 03:06:06;;;;;;;16.87;2.93;;;;;;;8.42;93.81;102509.84;5058996;28;20773;-88
2023/05/30 03:08:32;;;;;;;12.45;2.88;;;;;;;8.45;93.79;102505.16;5074800;28;20024;-88
2023/05/30 03:11:11;;;;;;;10.88;2.50;;;;;;;8.43;94.70;102510.72;5075354;28;20025;-88
2023/05/30 03:13:37;;;;;;;19.05;2.97;;;;;;;8.42;94.12;102512.53;5075664;28;20025;-88
2023/05/30 03:16:03;;;;;;;13.07;3.03;;;;;;;8.40;94.43;102516.41;5074818;28;20025;-88
2023/05/30 03:18:33;;;;;;;15.55;2.58;;;;;;;8.37;94.96;102523.00;5073711;28;20487;-88
2023/05/30 03:21:10;;;;;;;13.53;2.30;;;;;;;8.38;94.54;102532.78;5074408;28;20118;-88
2023/05/30 03:23:38;;;;;;;10.02;2.63;;;;;;;8.42;94.91;102526.06;5059336;28;20085;-88
2023/05/30 03:26:04;;;;;;;17.52;2.92;;;;;;;8.51;94.45;102534.28;5074390;28;20029;-89
2023/05/30 03:28:58;;;;;;;14.20;3.22;;;;;;;8.61;93.90;102535.00;5074138;28;20074;-88
2023/05/30 03:31:35;;;;;;;14.30;2.70;;;;;;;8.67;93.96;102534.34;5074127;28;20028;-88
2023/05/30 03:34:04;;;;;;;16.23;3.33;;;;;;;8.73;93.32;102539.13;5074290;28;20472;-88
2023/05/30 03:36:32;;;;;;;12.05;2.90;;;;;;;8.82;93.41;102537.31;5074389;28;20028;-88
2023/05/30 03:39:06;;;;;;;12.32;2.83;;;;;;;8.87;93.55;102543.09;5073758;28;20386;-88
2023/05/30 03:41:39;;;;;;;16.33;3.10;;;;;;;8.94;93.62;102554.09;5073938;28;20434;-88
2023/05/30 03:44:07;;;;;;;11.70;2.47;;;;;;;8.99;92.90;102553.59;5073525;28;20044;-87
2023/05/30 03:46:42;;;;;;;17.33;3.00;;;;;;;9.04;92.49;102548.56;5073249;28;20400;-88
2023/05/30 03:49:08;;;;;;;10.07;2.42;;;;;;;9.10;91.88;102556.03;5058025;28;20487;-88
2023/05/30 03:51:36;;;;;;;12.47;2.90;;;;;;;9.14;91.87;102568.25;5072949;28;20033;-89
2023/05/30 03:54:02;;;;;;;12.02;2.63;;;;;;;9.15;92.18;102560.94;5075041;28;20064;-88
2023/05/30 03:56:30;;;;;;;9.03;2.90;;;;;;;9.19;92.32;102557.75;5073456;28;20458;-88
2023/05/30 03:58:56;;;;;;;20.97;3.17;;;;;;;9.21;91.70;102558.44;5073318;28;20766;-88
2023/05/30 04:01:23;;;;;;;19.27;3.42;;;;;;;9.23;91.81;102566.41;5074720;28;20028;-89
2023/05/30 04:03:52;;;;;;;17.80;2.92;;;;;;;9.26;91.10;102564.19;5074706;28;20481;-88
2023/05/30 04:06:20;;;;;;;15.00;3.10;;;;;;;9.30;91.29;102567.41;5074598;28;20025;-88
2023/05/30 04:08:54;;;;;;;15.98;3.00;;;;;;;9.38;91.53;102564.75;5072516;28;20020;-88
2023/05/30 04:11:25;;;;;;;14.55;2.72;;;;;;;9.43;90.93;102556.97;5074342;28;20587;-88
2023/05/30 04:13:56;;;;;;;13.93;3.22;;;;;;;9.48;90.56;102562.72;5074559;28;20492;-89
2023/05/30 04:16:21;;;;;;;19.25;3.40;;;;;;;9.58;90.17;102568.00;5073405;28;20032;-88
2023/05/30 04:18:49;;;;;;;14.87;2.63;;;;;;;9.65;89.83;102562.75;5072794;28;20504;-88
2023/05/30 04:21:15;;;;;;;18.15;3.22;;;;;;;9.70;89.70;102562.25;5072790;28;20063;-88
2023/05/30 04:23:54;;;;;;;;;;;;;;;;;;;;;
2023/05/30 04:26:25;;;;;;;15.93;2.95;;;;;;;9.79;88.96;102564.81;5075350;28;20037;-88
2023/05/30 04:28:57;;;;;;;17.20;3.13;;;;;;;9.90;88.52;102563.63;5072461;28;20024;-88
2023/05/30 04:31:29;;;;;;;18.03;3.00;;;;;;;9.96;88.73;102562.94;5056348;28;20040;-88
2023/05/30 04:34:02;;;;;;;18.73;3.65;;;;;;;9.96;88.17;102557.53;5073729;28;20024;-88
2023/05/30 04:36:36;;;;;;;16.25;3.47;;;;;;;10.01;88.11;102563.31;5072709;28;20031;-88
2023/05/30 04:39:06;;;;;;;13.27;2.53;;;;;;;10.06;87.94;102559.22;5056617;28;20437;-88
2023/05/30 04:41:55;;;;;;;13.68;3.05;;;;;;;10.13;87.53;102566.50;5074409;28;20029;-88
2023/05/30 04:47:14;;;;;;;14.70;2.90;;;;;;;10.31;86.66;102566.31;5073657;28;20059;-88
2023/05/30 04:49:41;;;;;;;11.95;3.00;;;;;;;10.40;86.28;102558.22;5072107;28;20438;-94
2023/05/30 04:52:14;;;;;;;21.20;3.83;;;;;;;10.52;85.61;102568.50;5073808;28;20028;-88
2023/05/30 04:54:56;;;;;;;12.27;2.83;;;;;;;10.62;84.86;102562.91;5072913;28;20460;-89
2023/05/30 04:57:22;;;;;;;18.17;3.10;;;;;;;10.69;84.56;102557.63;5072340;28;20028;-88
2023/05/30 04:59:47;;;;;;;16.98;3.72;;;;;;;10.69;84.54;102552.22;5072550;28;20035;-88
2023/05/30 05:02:16;;;;;;;16.50;2.90;;;;;;;10.76;84.73;102561.31;5072550;28;20119;-88
2023/05/30 05:04:47;;;;;;;14.88;3.35;;;;;;;10.93;84.78;102558.56;5073715;28;20552;-88
2023/05/30 05:07:17;;;;;;;14.25;3.13;;;;;;;11.00;83.24;102556.84;5055497;28;20040;-87
2023/05/30 05:10:03;;;;;;;10.93;3.08;;;;;;;11.11;82.49;102558.31;5073966;28;20042;-88
2023/05/30 05:12:30;;;;;;;20.58;3.95;;;;;;;11.21;83.00;102553.50;5058343;28;20480;-88
2023/05/30 05:15:01;;;;;;;15.60;3.67;;;;;;;11.30;81.49;102566.03;5073388;28;20051;-89
2023/05/30 05:17:31;;;;;;;16.10;3.58;;;;;;;11.34;80.99;102547.50;5073315;28;20031;-88
2023/05/30 05:20:05;;;;;;;18.17;3.22;;;;;;;11.43;80.75;102556.44;5071760;28;20052;-89
2023/05/30 05:22:53;;;;;;;13.30;2.90;;;;;;;11.56;80.36;102568.41;5056387;28;20100;-88
2023/05/30 05:25:29;;;;;;;17.33;3.45;;;;;;;11.49;79.71;102558.44;5072257;28;20036;-88
2023/05/30 05:27:57;;;;;;;15.50;3.43;;;;;;;11.54;79.66;102550.59;5071940;28;20032;-88
2023/05/30 05:30:22;;;;;;;15.00;3.20;;;;;;;11.62;79.65;102550.53;5071872;28;20040;-83
2023/05/30 05:32:47;;;;;;;15.10;3.30;;;;;;;11.73;79.10;102554.72;5072095;28;20028;-83
2023/05/30 05:35:13;;;;;;;14.75;3.58;;;;;;;11.87;78.96;102564.81;5055194;28;20634;-83
2023/05/30 05:37:41;;;;;;;12.53;2.97;;;;;;;11.98;79.73;102560.81;5072044;28;20539;-84
2023/05/30 05:40:08;;;;;;;14.52;3.50;;;;;;;12.14;77.95;102557.13;5075325;28;20063;-83
2023/05/30 05:42:33;;;;;;;12.05;2.95;;;;;;;12.26;77.09;102555.63;5076225;28;20095;-83
2023/05/30 05:44:59;;;;;;;11.63;3.63;;;;;;;12.40;76.28;102558.56;5075865;28;20491;-83
2023/05/30 05:47:25;;;;;;;18.25;3.50;;;;;;;12.56;75.68;102555.69;5075155;28;20515;-83
2023/05/30 05:49:51;;;;;;;14.77;4.43;;;;;;;12.64;74.31;102557.47;5058173;28;20024;-83
2023/05/30 05:52:16;;;;;;;14.93;3.60;;;;;;;12.71;73.75;102561.16;5076614;28;20025;-83
2023/05/30 05:54:44;;;;;;;13.80;3.43;;;;;;;12.80;73.97;102564.63;5062146;28;20040;-83
2023/05/30 05:57:10;;;;;;;17.40;3.65;;;;;;;12.95;72.81;102560.00;5056931;28;20037;-83
2023/05/30 05:59:35;;;;;;;18.33;3.77;;;;;;;13.05;72.16;102569.75;5055366;28;20056;-83
2023/05/30 06:02:01;;;;;;;14.93;3.53;;;;;;;13.06;71.26;102569.56;5038510;28;20116;-83
2023/05/30 06:04:29;;;;;;;13.60;3.30;;;;;;;13.05;71.47;102562.44;5054976;28;20335;-83
2023/05/30 06:06:54;;;;;;;14.95;3.67;;;;;;;13.08;71.47;102577.53;5055205;28;20037;-83
2023/05/30 06:09:19;;;;;;;16.23;3.53;;;;;;;13.21;71.28;102572.25;5056465;28;20029;-83
2023/05/30 06:11:45;;;;;;;11.83;3.50;;;;;;;13.35;71.02;102565.13;5038253;28;20112;-83
2023/05/30 06:14:13;;;;;;;12.00;3.30;;;;;;;13.47;70.01;102570.91;5056195;28;20393;-83
2023/05/30 06:16:38;;;;;;;15.20;3.47;;;;;;;13.50;69.72;102570.53;5038403;28;20052;-83
2023/05/30 06:19:03;;;;;;;13.50;3.43;;;;;;;13.60;68.87;102572.97;5054639;28;20091;-84
2023/05/30 06:21:30;;;;;;;14.80;3.83;;;;;;;13.71;68.47;102568.88;5054460;28;20033;-83
2023/05/30 06:23:56;;;;;;;11.73;3.43;;;;;;;13.77;68.08;102571.63;5056369;28;20033;-83
2023/05/30 06:26:23;;;;;;;16.23;4.10;;;;;;;13.84;67.87;102572.56;5038031;28;20055;-83
2023/05/30 06:28:52;;;;;;;12.30;3.40;;;;;;;14.00;67.51;102573.34;5054532;28;20033;-83
2023/05/30 06:31:17;;;;;;;10.80;3.80;;;;;;;14.10;66.95;102579.31;5054603;28;20083;-83
2023/05/30 06:33:43;;;;;;;12.82;3.50;;;;;;;14.13;66.33;102575.31;5038165;28;20040;-83
2023/05/30 06:36:10;;;;;;;11.10;3.30;;;;;;;14.23;65.62;102575.00;5055968;28;20037;-83
2023/05/30 06:38:41;;;;;;;13.45;3.45;;;;;;;14.41;65.78;102575.34;5037742;28;20132;-83
2023/05/30 06:41:09;;;;;;;9.30;3.22;;;;;;;14.48;64.73;102570.78;5056210;28;20029;-83
2023/05/30 06:43:35;;;;;;;13.73;3.75;;;;;;;14.48;64.02;102578.13;5055816;28;20036;-83
2023/05/30 06:46:02;;;;;;;9.77;3.83;;;;;;;14.53;63.82;102578.38;5054177;28;20037;-84
2023/05/30 06:48:31;;;;;;;12.85;3.42;;;;;;;14.57;62.96;102569.59;5054045;28;20040;-83
2023/05/30 06:50:56;;;;;;;7.63;3.53;;;;;;;14.71;62.84;102573.25;5053411;28;20468;-83
2023/05/30 06:53:22;;;;;;;12.73;3.65;;;;;;;14.75;62.16;102571.00;5054962;28;20044;-83
2023/05/30 06:55:50;;;;;;;17.03;3.67;;;;;;;14.85;62.94;102585.13;5066559;28;20071;-86
2023/05/30 06:58:18;;;;;;;14.05;4.38;;;;;;;14.73;62.37;102575.78;5064640;28;20035;-86
2023/05/30 07:00:46;;;;;;;10.57;3.65;;;;;;;14.72;62.84;102583.16;5070240;28;20044;-86
2023/05/30 07:03:14;;;;;;;12.27;3.93;;;;;;;14.71;62.03;102588.81;5070350;28;20605;-87
2023/05/30 07:05:52;;;;;;;;;;;;;;;;;;;;;
2023/05/30 07:08:28;;;;;;;16.17;3.90;;;;;;;15.02;61.43;102590.25;5096221;28;20121;-87
2023/05/30 07:10:55;;;;;;;8.85;3.55;;;;;;;15.00;60.50;102595.06;5077592;28;20036;-86
2023/05/30 07:13:22;;;;;;;11.40;4.10;;;;;;;15.12;60.19;102588.00;5094121;28;20028;-87
2023/05/30 07:15:48;;;;;;;10.97;3.47;;;;;;;15.14;60.48;102585.88;5094447;28;20063;-87
2023/05/30 07:18:17;;;;;;;9.02;3.70;;;;;;;14.96;60.47;102591.91;5094229;28;20044;-87
2023/05/30 07:20:42;;;;;;;11.32;3.70;;;;;;;14.93;60.93;102592.31;5094246;28;20040;-87
2023/05/30 07:23:11;;;;;;;12.53;3.80;;;;;;;14.93;61.13;102595.03;5094287;28;20059;-86
2023/05/30 07:25:43;;;;;;;13.93;3.55;;;;;;;15.00;60.65;102584.13;5094044;28;20036;-86
2023/05/30 07:28:10;;;;;;;10.98;4.47;;;;;;;15.09;61.00;102596.59;5096888;28;20029;-86
2023/05/30 07:30:38;;;;;;;15.20;4.10;;;;;;;15.11;60.10;102580.00;5093798;28;20128;-86
2023/05/30 07:33:15;;;;;;;13.00;4.38;;;;;;;15.13;60.34;102589.66;5094457;28;20039;-87
2023/05/30 07:35:41;;;;;;;12.10;3.88;;;;;;;15.23;59.28;102592.84;5094276;28;20036;-87
2023/05/30 07:38:17;;;;;;;10.73;4.07;;;;;;;15.37;59.73;102598.41;5095202;28;20103;-86
2023/05/30 07:40:44;;;;;;;15.32;4.50;;;;;;;15.40;59.09;102604.28;5094101;28;20035;-87
2023/05/30 07:43:10;;;;;;;14.43;4.20;;;;;;;15.33;58.84;102600.69;5095206;28;20062;-87
2023/05/30 07:45:43;;;;;;;11.33;4.33;;;;;;;15.18;59.40;102611.78;5093494;28;20028;-87
2023/05/30 07:48:08;;;;;;;12.77;3.90;;;;;;;15.09;59.97;102602.06;5093690;28;20024;-86
2023/05/30 07:50:34;;;;;;;12.87;3.93;;;;;;;15.20;60.52;102609.66;5093475;28;20024;-86
2023/05/30 07:53:02;;;;;;;12.52;3.88;;;;;;;15.26;59.88;102588.88;5095386;28;20032;-87
2023/05/30 07:55:29;;;;;;;11.00;4.17;;;;;;;15.26;59.14;102588.88;5093908;28;20046;-87
2023/05/30 07:57:58;;;;;;;14.13;4.38;;;;;;;15.38;59.48;102589.13;5076804;28;20035;-87
2023/05/30 08:00:24;;;;;;;14.73;4.72;;;;;;;15.43;59.09;102584.72;5093383;28;20028;-87
2023/05/30 08:03:01;;;;;;;9.33;4.37;;;;;;;15.54;59.12;102580.53;5075778;28;20035;-87
2023/05/30 08:05:35;;;;;;;11.55;4.47;;;;;;;15.48;58.58;102592.31;5076760;28;20052;-87
2023/05/30 08:08:03;;;;;;;10.15;3.90;;;;;;;15.49;58.37;102590.44;5095029;28;20168;-87
2023/05/30 08:10:31;;;;;;;9.27;4.53;;;;;;;15.69;58.20;102583.09;5094477;28;20109;-87
2023/05/30 08:13:00;;;;;;;8.20;4.03;;;;;;;15.78;57.64;102587.38;5093426;28;20060;-87
2023/05/30 08:15:34;;;;;;;12.65;4.85;;;;;;;15.64;57.57;102588.38;5094398;28;20063;-87
2023/05/30 08:18:02;;;;;;;11.93;4.18;;;;;;;15.65;59.10;102595.53;5094788;28;20502;-87
2023/05/30 08:20:29;;;;;;;10.25;4.78;;;;;;;15.59;57.88;102583.53;5096080;28;20134;-87
2023/05/30 08:23:04;;;;;;;12.38;4.07;;;;;;;15.59;57.90;102580.78;5096334;28;20094;-87
2023/05/30 08:25:35;;;;;;;13.43;3.83;;;;;;;15.56;57.44;102585.81;5096590;28;20108;-86
2023/05/30 08:28:03;;;;;;;12.27;4.38;;;;;;;15.41;57.30;102580.50;5096527;28;20074;-87
2023/05/30 08:30:31;;;;;;;11.85;4.47;;;;;;;15.31;58.27;102580.91;5095993;28;20032;-87
2023/05/30 08:32:59;;;;;;;9.68;4.10;;;;;;;15.28;59.18;102586.81;5096430;28;20082;-87
2023/05/30 08:35:28;;;;;;;15.68;4.75;;;;;;;15.14;58.83;102587.78;5114871;28;20035;-87
2023/05/30 08:38:00;;;;;;;10.60;4.20;;;;;;;15.03;58.67;102578.28;5096337;28;20505;-87
2023/05/30 08:40:28;;;;;;;9.45;4.30;;;;;;;15.03;59.38;102583.75;5079935;28;20063;-87
2023/05/30 08:42:54;;;;;;;12.55;4.38;;;;;;;15.01;59.10;102583.09;5096067;28;20562;-87
2023/05/30 08:45:19;;;;;;;11.60;5.00;;;;;;;14.91;60.01;102567.91;5095872;28;20084;-87
2023/05/30 08:47:49;;;;;;;11.95;4.53;;;;;;;14.99;60.42;102566.91;5079065;28;20054;-87
2023/05/30 08:50:19;;;;;;;16.67;5.32;;;;;;;15.05;60.35;102568.81;5095653;28;20532;-87
2023/05/30 08:52:55;;;;;;;10.43;4.77;;;;;;;15.05;59.70;102562.50;5114374;28;20114;-87
2023/05/30 08:55:32;;;;;;;7.45;4.15;;;;;;;15.14;59.26;102558.53;5095776;28;20035;-87
2023/05/30 08:58:18;;;;;;;14.48;4.85;;;;;;;15.06;59.36;102558.75;5096337;28;20114;-86
2023/05/30 09:00:48;;;;;;;11.30;4.85;;;;;;;15.19;59.92;102561.53;5095742;28;20039;-87
2023/05/30 09:03:18;;;;;;;13.13;4.43;;;;;;;15.20;59.35;102560.47;5096318;28;20458;-87
2023/05/30 09:05:45;;;;;;;9.70;4.30;;;;;;;15.27;59.39;102557.75;5096066;28;20020;-87
2023/05/30 09:08:12;;;;;;;18.85;4.47;;;;;;;15.37;59.59;102563.69;5095967;28;20023;-86
2023/05/30 09:10:47;;;;;;;14.55;4.72;;;;;;;15.46;58.61;102556.13;5095632;28;20428;-87
2023/05/30 09:13:14;;;;;;;12.18;4.70;;;;;;;15.50;57.97;102546.47;5096352;28;20356;-87
2023/05/30 09:15:47;;;;;;;13.23;4.78;;;;;;;15.56;58.44;102559.31;5114091;28;20081;-87
2023/05/30 09:18:18;;;;;;;12.57;4.90;;;;;;;15.67;58.15;102555.13;5095232;28;20106;-87
2023/05/30 09:20:46;;;;;;;13.18;5.05;;;;;;;15.79;58.16;102548.00;5113675;28;20102;-87
2023/05/30 09:23:14;;;;;;;11.90;4.90;;;;;;;15.89;58.25;102549.50;5095252;28;20035;-87
2023/05/30 09:25:49;;;;;;;9.50;4.63;;;;;;;15.98;56.98;102550.97;5078977;28;20036;-87
2023/05/30 09:28:25;;;;;;;11.68;5.68;;;;;;;16.08;57.43;102539.59;5095957;28;20031;-87
2023/05/30 09:31:12;;;;;;;15.27;5.70;;;;;;;16.13;57.10;102542.53;5096969;28;20118;-87
2023/05/30 09:33:50;;;;;;;13.70;5.43;;;;;;;16.22;57.40;102544.00;5094936;28;20092;-87
2023/05/30 09:36:20;;;;;;;14.32;4.97;;;;;;;16.41;57.07;102527.78;5088610;28;20122;-86
2023/05/30 09:39:09;;;;;;;14.40;5.28;;;;;;;16.53;55.84;102530.69;5092899;28;20037;-85
2023/05/30 09:41:35;;;;;;;13.32;6.00;;;;;;;16.72;55.40;102535.28;5091585;28;20130;-84
2023/05/30 09:44:04;;;;;;;21.17;5.30;;;;;;;16.87;55.13;102524.06;5092002;28;20063;-85
2023/05/30 09:46:30;;;;;;;9.63;4.75;;;;;;;16.91;54.67;102525.31;5074811;28;20396;-84
2023/05/30 09:48:57;;;;;;;11.63;5.53;;;;;;;16.95;53.31;102525.75;5093315;28;20036;-84
2023/05/30 09:51:27;;;;;;;16.00;5.30;;;;;;;17.06;53.42;102526.97;5091754;28;20024;-84
2023/05/30 09:54:03;;;;;;;16.27;5.43;;;;;;;17.23;53.85;102521.78;5091972;28;20114;-84
2023/05/30 09:56:42;;;;;;;15.95;5.78;;;;;;;17.39;53.72;102531.41;5093305;28;20502;-84
2023/05/30 09:59:13;;;;;;;13.50;5.05;;;;;;;17.50;53.65;102526.06;5093226;28;20063;-84
2023/05/30 10:01:42;;;;;;;14.67;5.27;;;;;;;17.63;52.69;102521.56;5091882;28;20060;-84
2023/05/30 10:04:20;;;;;;;14.10;5.82;;;;;;;17.81;53.29;102526.28;5091835;28;20082;-85
2023/05/30 10:06:47;;;;;;;15.82;6.03;;;;;;;17.89;51.81;102520.50;5093394;28;20039;-84
2023/05/30 10:09:16;;;;;;;17.63;5.90;;;;;;;18.03;52.19;102513.88;5092877;28;20027;-84
2023/05/30 10:12:03;;;;;;;11.68;4.93;;;;;;;18.20;51.18;102516.91;5091769;28;20075;-85
2023/05/30 10:14:29;;;;;;;17.00;5.40;;;;;;;18.44;51.38;102513.47;5091085;28;20101;-85
2023/05/30 10:17:00;;;;;;;11.55;6.60;;;;;;;18.52;49.90;102518.69;5093124;28;20530;-84
2023/05/30 10:19:30;;;;;;;13.40;5.47;;;;;;;18.63;49.84;102512.44;5091552;28;20381;-85
2023/05/30 10:21:58;;;;;;;16.27;5.50;;;;;;;18.78;48.96;102523.03;5092258;28;20035;-85
2023/05/30 10:24:26;;;;;;;13.88;5.68;;;;;;;18.82;48.63;102517.91;5074866;28;20040;-85
2023/05/30 10:26:55;;;;;;;11.85;5.60;;;;;;;18.96;49.19;102508.47;5094856;28;20036;-85
2023/05/30 10:29:24;;;;;;;13.73;5.72;;;;;;;19.03;48.47;102514.72;5095273;28;20066;-85
2023/05/30 10:31:54;;;;;;;14.07;5.90;;;;;;;19.09;48.19;102510.19;5095375;28;20386;-85
2023/05/30 10:34:25;;;;;;;12.50;5.90;;;;;;;19.35;47.95;102514.47;5095211;28;20421;-85
2023/05/30 10:36:52;;;;;;;15.45;5.80;;;;;;;19.64;46.87;102517.44;5095431;28;20393;-85
2023/05/30 10:39:31;;;;;;;11.68;5.68;;;;;;;19.89;46.67;102516.44;5096264;28;20055;-85
2023/05/30 10:42:11;;;;;;;17.38;6.25;;;;;;;20.06;45.46;102508.28;5095154;28;20041;-85
2023/05/30 10:44:55;;;;;;;12.98;5.68;;;;;;;20.16;45.73;102498.34;5094307;28;20123;-85
2023/05/30 10:47:50;;;;;;;12.30;6.10;;;;;;;20.42;45.20;102503.63;5096576;28;20074;-85
2023/05/30 10:50:22;;;;;;;14.40;5.97;;;;;;;20.55;43.63;102502.50;5077283;28;20032;-85
2023/05/30 10:52:47;;;;;;;14.52;5.90;;;;;;;20.70;43.50;102488.22;5077795;28;20085;-85
2023/05/30 10:55:14;;;;;;;12.17;5.70;;;;;;;21.02;43.89;102486.69;5061143;28;20384;-85
2023/05/30 10:57:41;;;;;;;14.25;4.95;;;;;;;21.28;42.85;102489.09;5061167;28;20032;-85
2023/05/30 11:00:25;;;;;;;14.63;6.20;;;;;;;21.44;43.31;102487.47;5077789;28;20028;-85
2023/05/30 11:02:52;;;;;;;11.15;5.50;;;;;;;21.67;41.89;102489.25;5099689;28;20036;-85
2023/05/30 11:05:34;;;;;;;10.73;5.53;;;;;;;21.83;41.52;102480.09;5064107;28;20040;-87
2023/05/30 11:08:01;;;;;;;15.82;5.53;;;;;;;22.11;41.21;102478.31;5086327;28;20089;-88
2023/05/30 11:10:35;;;;;;;8.68;5.85;;;;;;;22.51;39.96;102481.94;5070462;28;20035;-88
2023/05/30 11:13:14;;;;;;;11.75;6.18;;;;;;;22.65;39.61;102471.31;5057683;28;20032;-88
2023/05/30 11:15:48;;;;;;;18.88;5.70;;;;;;;23.35;38.59;102471.56;5078259;28;20099;-86
2023/05/30 11:18:21;;;;;;;13.70;5.37;;;;;;;25.09;36.48;102476.50;5060380;28;20028;-87
2023/05/30 11:21:20;;;;;;;12.63;5.40;;;;;;;28.49;33.44;102464.50;5077056;28;20052;-88
2023/05/30 11:24:07;;;;;;;17.52;5.35;;;;;;;31.54;27.20;102468.88;5095165;28;20021;-87
2023/05/30 11:26:52;;;;;;;11.00;4.82;;;;;;;34.08;25.16;102468.06;5095512;28;20026;-88
2023/05/30 11:29:44;;;;;;;13.30;5.03;;;;;;;35.62;23.67;102466.75;5077416;28;20027;-86
2023/05/30 11:32:13;;;;;;;10.77;5.47;;;;;;;36.74;19.18;102455.50;5062069;28;20141;-87
2023/05/30 11:34:43;;;;;;;8.68;5.25;;;;;;;38.17;18.02;102440.81;5076679;28;20460;-87
2023/05/30 11:37:10;;;;;;;12.77;5.40;;;;;;;38.31;18.41;102452.47;5077260;28;20032;-86
2023/05/30 11:39:38;;;;;;;9.70;5.18;;;;;;;39.18;17.58;102441.00;5077058;28;20059;-87
2023/05/30 11:42:08;;;;;;;9.75;4.78;;;;;;;40.25;16.43;102440.41;5076789;28;20073;-87
2023/05/30 11:44:36;;;;;;;9.60;5.23;;;;;;;40.38;16.14;102432.50;5077080;28;20088;-87
2023/05/30 11:47:17;;;;;;;;;;;;;;;;;;;;;
2023/05/30 11:49:50;;;;;;;9.95;5.63;;;;;;;41.60;15.44;102427.44;5095332;28;20036;-85